sensor_id;sensor_type;location;lat;lon;timestamp;pressure;altitude;pressure_sealevel;temperature;humidity
37904;BME280;23738;50.422;18.758;2023-07-31T00:00:41;98112.94;;;18.04;77.94
37904;BME280;23738;50.422;18.758;2023-07-31T00:03:10;98114.58;;;18.00;78.22
37904;BME280;23738;50.422;18.758;2023-07-31T00:05:40;98121.60;;;17.97;78.23
37904;BME280;23738;50.422;18.758;2023-07-31T00:08:09;98122.44;;;17.93;78.44
37904;BME280;23738;50.422;18.758;2023-07-31T00:10:38;98118.48;;;17.88;78.47
37904;BME280;23738;50.422;18.758;2023-07-31T00:13:08;98116.91;;;17.83;78.67
37904;BME280;23738;50.422;18.758;2023-07-31T00:15:37;98111.02;;;17.79;78.60
37904;BME280;23738;50.422;18.758;2023-07-31T00:18:06;98111.67;;;17.77;78.72
37904;BME280;23738;50.422;18.758;2023-07-31T00:20:35;98110.07;;;17.76;78.77
37904;BME280;23738;50.422;18.758;2023-07-31T00:23:05;98113.79;;;17.74;78.84
37904;BME280;23738;50.422;18.758;2023-07-31T00:25:34;98114.30;;;17.71;78.76
37904;BME280;23738;50.422;18.758;2023-07-31T00:28:04;98118.80;;;17.67;78.76
37904;BME280;23738;50.422;18.758;2023-07-31T00:30:33;98115.22;;;17.60;78.65
37904;BME280;23738;50.422;18.758;2023-07-31T00:33:02;98119.67;;;17.59;78.65
37904;BME280;23738;50.422;18.758;2023-07-31T00:35:32;98123.77;;;17.58;78.64
37904;BME280;23738;50.422;18.758;2023-07-31T00:38:01;98128.52;;;17.56;78.71
37904;BME280;23738;50.422;18.758;2023-07-31T00:40:30;98136.18;;;17.53;78.61
37904;BME280;23738;50.422;18.758;2023-07-31T00:43:03;98133.16;;;17.50;78.56
37904;BME280;23738;50.422;18.758;2023-07-31T00:45:33;98132.81;;;17.45;78.66
37904;BME280;23738;50.422;18.758;2023-07-31T00:48:03;98129.02;;;17.42;78.57
37904;BME280;23738;50.422;18.758;2023-07-31T00:50:34;98124.58;;;17.39;78.57
37904;BME280;23738;50.422;18.758;2023-07-31T00:53:03;98128.94;;;17.38;78.65
37904;BME280;23738;50.422;18.758;2023-07-31T00:55:33;98130.85;;;17.37;78.71
37904;BME280;23738;50.422;18.758;2023-07-31T00:58:03;98138.68;;;17.36;78.69
37904;BME280;23738;50.422;18.758;2023-07-31T01:03:40;98148.24;;;17.30;78.58
37904;BME280;23738;50.422;18.758;2023-07-31T01:07:11;98156.02;;;17.29;78.56
37904;BME280;23738;50.422;18.758;2023-07-31T01:10:43;98158.21;;;17.29;78.57
37904;BME280;23738;50.422;18.758;2023-07-31T01:14:16;98157.95;;;17.24;78.50
37904;BME280;23738;50.422;18.758;2023-07-31T01:17:46;98163.59;;;17.17;78.51
37904;BME280;23738;50.422;18.758;2023-07-31T01:21:18;98162.91;;;17.10;78.59
37904;BME280;23738;50.422;18.758;2023-07-31T01:24:56;98164.25;;;17.05;78.60
37904;BME280;23738;50.422;18.758;2023-07-31T01:27:59;98162.58;;;17.03;78.57
37904;BME280;23738;50.422;18.758;2023-07-31T01:30:34;98161.42;;;17.05;78.89
37904;BME280;23738;50.422;18.758;2023-07-31T01:33:27;98163.64;;;17.08;79.00
37904;BME280;23738;50.422;18.758;2023-07-31T01:36:56;98167.96;;;17.08;78.90
37904;BME280;23738;50.422;18.758;2023-07-31T01:40:28;98170.89;;;17.06;78.72
37904;BME280;23738;50.422;18.758;2023-07-31T01:43:57;98168.68;;;17.05;78.82
37904;BME280;23738;50.422;18.758;2023-07-31T01:47:27;98174.80;;;17.04;78.92
37904;BME280;23738;50.422;18.758;2023-07-31T01:50:57;98176.29;;;17.03;78.90
37904;BME280;23738;50.422;18.758;2023-07-31T01:54:23;98175.73;;;17.01;78.96
37904;BME280;23738;50.422;18.758;2023-07-31T01:57:53;98178.03;;;16.97;78.89
37904;BME280;23738;50.422;18.758;2023-07-31T02:01:22;98177.73;;;16.94;78.92
37904;BME280;23738;50.422;18.758;2023-07-31T02:04:49;98176.69;;;16.93;78.98
37904;BME280;23738;50.422;18.758;2023-07-31T02:08:18;98180.15;;;16.91;79.09
37904;BME280;23738;50.422;18.758;2023-07-31T02:11:48;98175.95;;;16.84;79.20
37904;BME280;23738;50.422;18.758;2023-07-31T02:15:28;98176.29;;;16.78;79.27
37904;BME280;23738;50.422;18.758;2023-07-31T02:18:57;98175.11;;;16.77;79.31
37904;BME280;23738;50.422;18.758;2023-07-31T02:22:39;98188.27;;;16.79;79.39
37904;BME280;23738;50.422;18.758;2023-07-31T02:26:09;98194.61;;;16.79;79.65
37904;BME280;23738;50.422;18.758;2023-07-31T02:29:38;98198.47;;;16.75;79.75
37904;BME280;23738;50.422;18.758;2023-07-31T02:33:14;98199.84;;;16.71;79.66
37904;BME280;23738;50.422;18.758;2023-07-31T02:36:42;98206.15;;;16.71;79.73
37904;BME280;23738;50.422;18.758;2023-07-31T02:40:15;98211.85;;;16.75;79.77
37904;BME280;23738;50.422;18.758;2023-07-31T02:44:02;98212.23;;;16.78;80.01
37904;BME280;23738;50.422;18.758;2023-07-31T02:47:31;98210.31;;;16.76;80.03
37904;BME280;23738;50.422;18.758;2023-07-31T02:51:01;98209.35;;;16.75;80.00
37904;BME280;23738;50.422;18.758;2023-07-31T02:54:27;98210.15;;;16.76;80.09
37904;BME280;23738;50.422;18.758;2023-07-31T02:57:57;98211.54;;;16.75;80.17
37904;BME280;23738;50.422;18.758;2023-07-31T03:01:30;98209.98;;;16.71;80.27
37904;BME280;23738;50.422;18.758;2023-07-31T03:04:59;98214.02;;;16.70;80.32
37904;BME280;23738;50.422;18.758;2023-07-31T03:07:51;98213.20;;;16.69;80.27
37904;BME280;23738;50.422;18.758;2023-07-31T03:11:21;98215.81;;;16.72;80.30
37904;BME280;23738;50.422;18.758;2023-07-31T03:18:03;98217.33;;;16.73;80.45
37904;BME280;23738;50.422;18.758;2023-07-31T03:20:52;98211.70;;;16.71;80.44
37904;BME280;23738;50.422;18.758;2023-07-31T03:24:02;98218.52;;;16.76;80.43
37904;BME280;23738;50.422;18.758;2023-07-31T03:27:11;98213.82;;;16.76;80.47
37904;BME280;23738;50.422;18.758;2023-07-31T03:30:40;98213.51;;;16.80;80.50
37904;BME280;23738;50.422;18.758;2023-07-31T03:34:10;98213.59;;;16.78;80.47
37904;BME280;23738;50.422;18.758;2023-07-31T03:37:37;98208.34;;;16.80;80.65
37904;BME280;23738;50.422;18.758;2023-07-31T03:41:17;98207.79;;;16.82;80.53
37904;BME280;23738;50.422;18.758;2023-07-31T03:44:47;98208.48;;;16.88;80.53
37904;BME280;23738;50.422;18.758;2023-07-31T03:48:16;98202.73;;;16.93;80.59
37904;BME280;23738;50.422;18.758;2023-07-31T03:55:23;98228.65;;;16.91;80.53
37904;BME280;23738;50.422;18.758;2023-07-31T03:58:50;98232.77;;;16.89;80.58
37904;BME280;23738;50.422;18.758;2023-07-31T04:02:01;98230.90;;;16.92;80.55
37904;BME280;23738;50.422;18.758;2023-07-31T04:05:31;98230.77;;;16.99;80.60
37904;BME280;23738;50.422;18.758;2023-07-31T04:08:57;98236.56;;;17.04;80.59
37904;BME280;23738;50.422;18.758;2023-07-31T04:12:27;98232.07;;;17.09;80.52
37904;BME280;23738;50.422;18.758;2023-07-31T04:15:54;98228.01;;;17.12;80.48
37904;BME280;23738;50.422;18.758;2023-07-31T04:19:23;98230.61;;;17.16;80.48
37904;BME280;23738;50.422;18.758;2023-07-31T04:22:52;98228.55;;;17.22;80.34
37904;BME280;23738;50.422;18.758;2023-07-31T04:26:21;98224.75;;;17.27;80.30
37904;BME280;23738;50.422;18.758;2023-07-31T04:29:50;98228.77;;;17.28;80.27
37904;BME280;23738;50.422;18.758;2023-07-31T04:33:19;98231.39;;;17.31;80.30
37904;BME280;23738;50.422;18.758;2023-07-31T04:36:55;98234.63;;;17.40;80.38
37904;BME280;23738;50.422;18.758;2023-07-31T04:40:24;98242.84;;;17.47;80.18
37904;BME280;23738;50.422;18.758;2023-07-31T04:43:56;98250.20;;;17.52;80.30
37904;BME280;23738;50.422;18.758;2023-07-31T04:47:06;98249.72;;;17.52;80.39
37904;BME280;23738;50.422;18.758;2023-07-31T04:50:15;98251.52;;;17.55;80.18
37904;BME280;23738;50.422;18.758;2023-07-31T04:53:44;98248.50;;;17.58;80.21
37904;BME280;23738;50.422;18.758;2023-07-31T04:57:13;98245.77;;;17.61;80.15
37904;BME280;23738;50.422;18.758;2023-07-31T05:00:42;98248.68;;;17.62;80.19
37904;BME280;23738;50.422;18.758;2023-07-31T05:04:13;98245.11;;;17.62;80.10
37904;BME280;23738;50.422;18.758;2023-07-31T05:07:42;98244.74;;;17.64;80.14
37904;BME280;23738;50.422;18.758;2023-07-31T05:11:11;98242.14;;;17.66;80.15
37904;BME280;23738;50.422;18.758;2023-07-31T05:14:40;98243.36;;;17.70;80.11
37904;BME280;23738;50.422;18.758;2023-07-31T05:18:10;98244.05;;;17.79;80.42
37904;BME280;23738;50.422;18.758;2023-07-31T05:21:18;98236.91;;;18.05;80.68
37904;BME280;23738;50.422;18.758;2023-07-31T05:24:09;98237.48;;;18.23;80.65
37904;BME280;23738;50.422;18.758;2023-07-31T05:27:49;98234.21;;;18.36;80.34
37904;BME280;23738;50.422;18.758;2023-07-31T05:31:21;98234.11;;;18.64;80.39
37904;BME280;23738;50.422;18.758;2023-07-31T05:34:52;98236.26;;;18.84;80.17
37904;BME280;23738;50.422;18.758;2023-07-31T05:38:21;98234.37;;;18.90;79.72
37904;BME280;23738;50.422;18.758;2023-07-31T05:41:57;98241.28;;;18.94;79.36
37904;BME280;23738;50.422;18.758;2023-07-31T05:45:32;98245.59;;;18.96;79.28
37904;BME280;23738;50.422;18.758;2023-07-31T05:49:03;98245.92;;;18.99;78.80
37904;BME280;23738;50.422;18.758;2023-07-31T05:52:32;98247.04;;;18.97;78.28
37904;BME280;23738;50.422;18.758;2023-07-31T05:55:59;98245.23;;;19.00;78.41
37904;BME280;23738;50.422;18.758;2023-07-31T05:59:17;98242.84;;;19.16;78.59
37904;BME280;23738;50.422;18.758;2023-07-31T06:03:04;98250.73;;;19.38;77.93
37904;BME280;23738;50.422;18.758;2023-07-31T06:06:31;98252.32;;;19.52;77.65
37904;BME280;23738;50.422;18.758;2023-07-31T06:09:58;98248.39;;;19.67;77.50
37904;BME280;23738;50.422;18.758;2023-07-31T06:13:27;98245.95;;;19.81;77.26
37904;BME280;23738;50.422;18.758;2023-07-31T06:16:57;98243.52;;;19.94;76.72
37904;BME280;23738;50.422;18.758;2023-07-31T06:20:27;98244.65;;;20.02;76.35
37904;BME280;23738;50.422;18.758;2023-07-31T06:23:56;98241.05;;;20.16;76.51
37904;BME280;23738;50.422;18.758;2023-07-31T06:27:23;98248.91;;;20.37;75.76
37904;BME280;23738;50.422;18.758;2023-07-31T06:30:50;98245.73;;;20.49;75.46
37904;BME280;23738;50.422;18.758;2023-07-31T06:34:13;98244.31;;;20.69;75.26
37904;BME280;23738;50.422;18.758;2023-07-31T06:37:43;98239.66;;;20.83;75.31
37904;BME280;23738;50.422;18.758;2023-07-31T06:41:12;98240.45;;;21.09;74.43
37904;BME280;23738;50.422;18.758;2023-07-31T06:44:41;98233.81;;;21.17;74.18
37904;BME280;23738;50.422;18.758;2023-07-31T06:48:10;98237.40;;;21.27;73.90
37904;BME280;23738;50.422;18.758;2023-07-31T06:51:39;98239.73;;;21.43;73.40
37904;BME280;23738;50.422;18.758;2023-07-31T06:55:03;98239.79;;;21.62;72.87
37904;BME280;23738;50.422;18.758;2023-07-31T06:58:31;98244.03;;;21.90;72.62
37904;BME280;23738;50.422;18.758;2023-07-31T07:02:12;98247.93;;;22.06;72.16
37904;BME280;23738;50.422;18.758;2023-07-31T07:05:41;98249.27;;;22.27;71.12
37904;BME280;23738;50.422;18.758;2023-07-31T07:09:10;98251.66;;;22.49;70.96
37904;BME280;23738;50.422;18.758;2023-07-31T07:12:39;98254.36;;;22.66;69.63
37904;BME280;23738;50.422;18.758;2023-07-31T07:16:10;98251.14;;;22.70;69.64
37904;BME280;23738;50.422;18.758;2023-07-31T07:18:56;98249.77;;;22.81;69.12
37904;BME280;23738;50.422;18.758;2023-07-31T07:21:45;98246.79;;;22.92;68.85
37904;BME280;23738;50.422;18.758;2023-07-31T07:25:15;98245.65;;;23.30;69.04
37904;BME280;23738;50.422;18.758;2023-07-31T07:28:44;98245.56;;;23.56;67.89
37904;BME280;23738;50.422;18.758;2023-07-31T07:32:11;98245.67;;;23.71;66.83
37904;BME280;23738;50.422;18.758;2023-07-31T07:35:40;98245.73;;;23.93;66.49
37904;BME280;23738;50.422;18.758;2023-07-31T07:39:28;98245.55;;;24.08;65.70
37904;BME280;23738;50.422;18.758;2023-07-31T07:42:57;98241.98;;;24.27;66.51
37904;BME280;23738;50.422;18.758;2023-07-31T07:46:24;98243.05;;;24.51;65.51
37904;BME280;23738;50.422;18.758;2023-07-31T07:50:03;98241.41;;;24.64;65.32
37904;BME280;23738;50.422;18.758;2023-07-31T07:53:33;98245.73;;;24.67;64.57
37904;BME280;23738;50.422;18.758;2023-07-31T07:57:02;98242.67;;;24.66;64.27
37904;BME280;23738;50.422;18.758;2023-07-31T08:00:19;98242.73;;;24.83;64.11
37904;BME280;23738;50.422;18.758;2023-07-31T08:03:46;98248.64;;;25.06;64.18
37904;BME280;23738;50.422;18.758;2023-07-31T08:07:15;98253.58;;;25.35;63.87
37904;BME280;23738;50.422;18.758;2023-07-31T08:10:45;98251.70;;;25.52;62.65
37904;BME280;23738;50.422;18.758;2023-07-31T08:14:11;98256.04;;;25.71;62.32
37904;BME280;23738;50.422;18.758;2023-07-31T08:17:38;98250.49;;;25.88;61.93
37904;BME280;23738;50.422;18.758;2023-07-31T08:21:18;98249.81;;;26.12;60.72
37904;BME280;23738;50.422;18.758;2023-07-31T08:24:44;98248.95;;;26.15;61.09
37904;BME280;23738;50.422;18.758;2023-07-31T08:27:37;98255.09;;;25.98;59.49
37904;BME280;23738;50.422;18.758;2023-07-31T08:31:06;98255.80;;;25.66;60.05
37904;BME280;23738;50.422;18.758;2023-07-31T08:33:55;98253.46;;;25.84;58.18
37904;BME280;23738;50.422;18.758;2023-07-31T08:36:44;98253.64;;;26.07;59.21
37904;BME280;23738;50.422;18.758;2023-07-31T08:40:13;98250.30;;;26.39;58.77
37904;BME280;23738;50.422;18.758;2023-07-31T08:43:43;98249.80;;;26.56;57.58
37904;BME280;23738;50.422;18.758;2023-07-31T08:47:10;98249.58;;;26.67;56.97
37904;BME280;23738;50.422;18.758;2023-07-31T08:50:39;98252.02;;;26.65;56.94
37904;BME280;23738;50.422;18.758;2023-07-31T08:53:49;98253.77;;;26.43;57.01
37904;BME280;23738;50.422;18.758;2023-07-31T08:57:24;98253.20;;;26.21;56.69
37904;BME280;23738;50.422;18.758;2023-07-31T09:01:07;98250.96;;;26.00;56.67
37904;BME280;23738;50.422;18.758;2023-07-31T09:04:42;98246.05;;;26.24;55.69
37904;BME280;23738;50.422;18.758;2023-07-31T09:08:11;98246.08;;;26.59;55.52
37904;BME280;23738;50.422;18.758;2023-07-31T09:15:06;98242.63;;;26.61;55.10
37904;BME280;23738;50.422;18.758;2023-07-31T09:18:41;98244.52;;;26.51;54.28
37904;BME280;23738;50.422;18.758;2023-07-31T09:22:11;98237.52;;;26.47;54.42
37904;BME280;23738;50.422;18.758;2023-07-31T09:25:41;98241.01;;;26.69;53.18
37904;BME280;23738;50.422;18.758;2023-07-31T09:29:18;98238.14;;;26.75;53.38
37904;BME280;23738;50.422;18.758;2023-07-31T09:32:38;98238.94;;;26.70;52.19
37904;BME280;23738;50.422;18.758;2023-07-31T09:35:50;98239.90;;;26.64;51.62
37904;BME280;23738;50.422;18.758;2023-07-31T09:39:17;98234.63;;;26.39;51.59
37904;BME280;23738;50.422;18.758;2023-07-31T09:42:47;98238.98;;;26.22;51.90
37904;BME280;23738;50.422;18.758;2023-07-31T09:46:16;98243.31;;;26.25;52.01
37904;BME280;23738;50.422;18.758;2023-07-31T09:49:32;98245.42;;;25.95;51.80
37904;BME280;23738;50.422;18.758;2023-07-31T09:52:02;98233.23;;;25.82;52.20
37904;BME280;23738;50.422;18.758;2023-07-31T09:54:40;98235.34;;;25.79;50.55
37904;BME280;23738;50.422;18.758;2023-07-31T09:57:10;98231.17;;;25.62;50.69
37904;BME280;23738;50.422;18.758;2023-07-31T09:59:43;98227.23;;;25.49;50.64
37904;BME280;23738;50.422;18.758;2023-07-31T10:02:24;98228.46;;;25.54;50.76
37904;BME280;23738;50.422;18.758;2023-07-31T10:05:07;98225.83;;;25.85;51.34
37904;BME280;23738;50.422;18.758;2023-07-31T10:07:39;98221.78;;;26.06;50.63
37904;BME280;23738;50.422;18.758;2023-07-31T10:10:49;98216.09;;;26.22;50.62
37904;BME280;23738;50.422;18.758;2023-07-31T10:13:58;98208.80;;;26.35;50.17
37904;BME280;23738;50.422;18.758;2023-07-31T10:16:31;98199.42;;;26.64;50.05
37904;BME280;23738;50.422;18.758;2023-07-31T10:19:41;98192.00;;;26.92;49.91
37904;BME280;23738;50.422;18.758;2023-07-31T10:22:26;98186.85;;;27.21;50.08
37904;BME280;23738;50.422;18.758;2023-07-31T10:25:37;98187.92;;;27.57;49.62
37904;BME280;23738;50.422;18.758;2023-07-31T10:28:11;98194.06;;;27.75;49.18
37904;BME280;23738;50.422;18.758;2023-07-31T10:31:04;98193.52;;;27.89;48.64
37904;BME280;23738;50.422;18.758;2023-07-31T10:33:38;98195.30;;;28.01;48.00
37904;BME280;23738;50.422;18.758;2023-07-31T10:36:35;98184.69;;;28.12;48.41
37904;BME280;23738;50.422;18.758;2023-07-31T10:39:35;98186.02;;;28.23;47.56
37904;BME280;23738;50.422;18.758;2023-07-31T10:42:13;98183.79;;;28.40;47.01
37904;BME280;23738;50.422;18.758;2023-07-31T10:45:05;98173.73;;;28.46;46.69
37904;BME280;23738;50.422;18.758;2023-07-31T10:47:39;98167.04;;;28.51;45.85
37904;BME280;23738;50.422;18.758;2023-07-31T10:50:24;98160.98;;;28.68;46.59
37904;BME280;23738;50.422;18.758;2023-07-31T10:53:21;98168.33;;;28.66;45.57
37904;BME280;23738;50.422;18.758;2023-07-31T10:56:52;98169.77;;;28.22;45.59
37904;BME280;23738;50.422;18.758;2023-07-31T11:00:31;98164.27;;;28.17;45.91
37904;BME280;23738;50.422;18.758;2023-07-31T11:04:07;98168.09;;;28.29;46.18
37904;BME280;23738;50.422;18.758;2023-07-31T11:07:49;98163.62;;;28.42;45.92
37904;BME280;23738;50.422;18.758;2023-07-31T11:11:27;98157.67;;;28.32;45.37
37904;BME280;23738;50.422;18.758;2023-07-31T11:14:16;98158.20;;;28.26;45.58
37904;BME280;23738;50.422;18.758;2023-07-31T11:17:47;98150.06;;;28.44;44.74
37904;BME280;23738;50.422;18.758;2023-07-31T11:21:17;98146.19;;;28.44;44.53
37904;BME280;23738;50.422;18.758;2023-07-31T11:24:55;98141.83;;;28.56;44.64
37904;BME280;23738;50.422;18.758;2023-07-31T11:28:26;98143.39;;;28.30;43.86
37904;BME280;23738;50.422;18.758;2023-07-31T11:31:55;98144.29;;;28.04;44.03
37904;BME280;23738;50.422;18.758;2023-07-31T11:35:06;98141.20;;;28.04;43.54
37904;BME280;23738;50.422;18.758;2023-07-31T11:37:44;98135.02;;;28.23;43.94
37904;BME280;23738;50.422;18.758;2023-07-31T11:40:40;98133.62;;;28.37;42.88
37904;BME280;23738;50.422;18.758;2023-07-31T11:43:40;98138.98;;;28.03;42.85
37904;BME280;23738;50.422;18.758;2023-07-31T11:46:10;98139.98;;;27.83;42.78
37904;BME280;23738;50.422;18.758;2023-07-31T11:48:41;98138.84;;;27.61;42.91
37904;BME280;23738;50.422;18.758;2023-07-31T11:51:31;98132.55;;;27.41;42.70
37904;BME280;23738;50.422;18.758;2023-07-31T11:55:00;98134.08;;;27.23;43.43
37904;BME280;23738;50.422;18.758;2023-07-31T11:58:29;98130.20;;;27.12;43.49
37904;BME280;23738;50.422;18.758;2023-07-31T12:01:58;98127.09;;;27.07;43.79
37904;BME280;23738;50.422;18.758;2023-07-31T12:05:43;98126.48;;;26.94;43.78
37904;BME280;23738;50.422;18.758;2023-07-31T12:08:13;98130.89;;;26.76;43.72
37904;BME280;23738;50.422;18.758;2023-07-31T12:11:04;98127.80;;;26.57;43.50
37904;BME280;23738;50.422;18.758;2023-07-31T12:14:30;98128.98;;;26.26;43.64
37904;BME280;23738;50.422;18.758;2023-07-31T12:17:59;98124.21;;;26.07;43.90
37904;BME280;23738;50.422;18.758;2023-07-31T12:21:08;98122.40;;;25.93;43.86
37904;BME280;23738;50.422;18.758;2023-07-31T12:24:37;98113.95;;;25.85;43.98
37904;BME280;23738;50.422;18.758;2023-07-31T12:28:07;98108.81;;;25.83;43.93
37904;BME280;23738;50.422;18.758;2023-07-31T12:31:36;98100.88;;;25.82;44.03
37904;BME280;23738;50.422;18.758;2023-07-31T12:34:43;98099.08;;;25.76;44.01
37904;BME280;23738;50.422;18.758;2023-07-31T12:38:12;98095.02;;;25.80;44.15
37904;BME280;23738;50.422;18.758;2023-07-31T12:41:41;98090.59;;;25.67;44.31
37904;BME280;23738;50.422;18.758;2023-07-31T12:44:46;98083.78;;;25.60;44.41
37904;BME280;23738;50.422;18.758;2023-07-31T12:47:35;98084.70;;;25.62;44.83
37904;BME280;23738;50.422;18.758;2023-07-31T12:51:03;98082.84;;;25.68;44.56
37904;BME280;23738;50.422;18.758;2023-07-31T12:54:30;98076.38;;;25.77;44.53
37904;BME280;23738;50.422;18.758;2023-07-31T12:57:57;98066.20;;;26.05;45.15
37904;BME280;23738;50.422;18.758;2023-07-31T13:01:04;98066.25;;;26.23;44.78
37904;BME280;23738;50.422;18.758;2023-07-31T13:04:33;98066.21;;;26.32;44.62
37904;BME280;23738;50.422;18.758;2023-07-31T13:08:03;98062.71;;;26.42;44.99
37904;BME280;23738;50.422;18.758;2023-07-31T13:11:29;98061.77;;;26.47;44.71
37904;BME280;23738;50.422;18.758;2023-07-31T13:14:58;98060.79;;;26.49;44.87
37904;BME280;23738;50.422;18.758;2023-07-31T13:18:25;98058.14;;;26.55;44.72
37904;BME280;23738;50.422;18.758;2023-07-31T13:21:15;98054.62;;;26.52;44.39
37904;BME280;23738;50.422;18.758;2023-07-31T13:24:45;98047.94;;;26.57;44.45
37904;BME280;23738;50.422;18.758;2023-07-31T13:27:52;98044.59;;;26.68;44.38
37904;BME280;23738;50.422;18.758;2023-07-31T13:30:22;98045.81;;;26.78;44.25
37904;BME280;23738;50.422;18.758;2023-07-31T13:33:11;98044.52;;;26.85;43.74
37904;BME280;23738;50.422;18.758;2023-07-31T13:35:41;98047.38;;;26.78;43.73
37904;BME280;23738;50.422;18.758;2023-07-31T13:38:11;98048.42;;;26.60;43.16
37904;BME280;23738;50.422;18.758;2023-07-31T13:41:01;98048.13;;;26.43;43.49
37904;BME280;23738;50.422;18.758;2023-07-31T13:47:52;98043.23;;;26.24;43.79
37904;BME280;23738;50.422;18.758;2023-07-31T13:50:22;98043.22;;;26.16;43.38
37904;BME280;23738;50.422;18.758;2023-07-31T13:53:13;98041.38;;;26.04;43.66
37904;BME280;23738;50.422;18.758;2023-07-31T13:56:57;98043.05;;;26.04;44.02
37904;BME280;23738;50.422;18.758;2023-07-31T14:00:28;98047.39;;;25.95;43.94
37904;BME280;23738;50.422;18.758;2023-07-31T14:07:02;98046.71;;;25.46;43.96
37904;BME280;23738;50.422;18.758;2023-07-31T14:09:52;98049.92;;;25.30;44.15
37904;BME280;23738;50.422;18.758;2023-07-31T14:13:21;98045.34;;;25.10;44.19
37904;BME280;23738;50.422;18.758;2023-07-31T14:15:51;98047.27;;;25.00;44.45
37904;BME280;23738;50.422;18.758;2023-07-31T14:18:21;98047.06;;;24.92;44.76
37904;BME280;23738;50.422;18.758;2023-07-31T14:20:51;98043.67;;;24.85;45.01
37904;BME280;23738;50.422;18.758;2023-07-31T14:23:40;98041.23;;;24.83;45.03
37904;BME280;23738;50.422;18.758;2023-07-31T14:26:45;98046.48;;;24.83;45.17
37904;BME280;23738;50.422;18.758;2023-07-31T14:33:39;98043.05;;;24.68;45.52
37904;BME280;23738;50.422;18.758;2023-07-31T14:36:28;98038.59;;;24.67;45.88
37904;BME280;23738;50.422;18.758;2023-07-31T14:39:58;98038.42;;;24.88;46.06
37904;BME280;23738;50.422;18.758;2023-07-31T14:43:32;98039.80;;;25.04;46.23
37904;BME280;23738;50.422;18.758;2023-07-31T14:47:12;98036.35;;;25.25;46.43
37904;BME280;23738;50.422;18.758;2023-07-31T14:50:42;98029.35;;;25.33;46.41
37904;BME280;23738;50.422;18.758;2023-07-31T14:53:48;98023.45;;;25.43;46.35
37904;BME280;23738;50.422;18.758;2023-07-31T14:56:17;98017.10;;;25.52;46.40
37904;BME280;23738;50.422;18.758;2023-07-31T14:59:46;98012.08;;;25.64;46.43
37904;BME280;23738;50.422;18.758;2023-07-31T15:03:13;98008.04;;;25.73;46.37
37904;BME280;23738;50.422;18.758;2023-07-31T15:06:56;98003.73;;;25.77;46.31
37904;BME280;23738;50.422;18.758;2023-07-31T15:10:29;97998.05;;;25.78;46.36
37904;BME280;23738;50.422;18.758;2023-07-31T15:13:56;97998.04;;;25.77;46.27
37904;BME280;23738;50.422;18.758;2023-07-31T15:17:25;97998.70;;;25.77;46.02
37904;BME280;23738;50.422;18.758;2023-07-31T15:21:04;97990.62;;;25.73;46.13
37904;BME280;23738;50.422;18.758;2023-07-31T15:24:44;97992.88;;;25.68;45.99
37904;BME280;23738;50.422;18.758;2023-07-31T15:28:13;97995.63;;;25.59;45.87
37904;BME280;23738;50.422;18.758;2023-07-31T15:31:43;97996.54;;;25.44;45.99
37904;BME280;23738;50.422;18.758;2023-07-31T15:35:12;97998.08;;;25.32;46.12
37904;BME280;23738;50.422;18.758;2023-07-31T15:39:00;97994.95;;;25.25;46.36
37904;BME280;23738;50.422;18.758;2023-07-31T15:42:27;97986.70;;;25.24;46.45
37904;BME280;23738;50.422;18.758;2023-07-31T15:46:05;97985.11;;;25.19;46.19
37904;BME280;23738;50.422;18.758;2023-07-31T15:49:44;97981.80;;;25.14;46.42
37904;BME280;23738;50.422;18.758;2023-07-31T15:53:13;97983.72;;;25.07;46.39
37904;BME280;23738;50.422;18.758;2023-07-31T15:56:42;97976.34;;;24.96;46.66
37904;BME280;23738;50.422;18.758;2023-07-31T16:00:12;97970.89;;;24.84;46.48
37904;BME280;23738;50.422;18.758;2023-07-31T16:03:39;97971.10;;;24.76;46.65
37904;BME280;23738;50.422;18.758;2023-07-31T16:07:08;97962.14;;;24.76;46.82
37904;BME280;23738;50.422;18.758;2023-07-31T16:10:49;97960.46;;;24.73;46.86
37904;BME280;23738;50.422;18.758;2023-07-31T16:14:18;97963.46;;;24.67;46.88
37904;BME280;23738;50.422;18.758;2023-07-31T16:17:48;97960.83;;;24.60;46.99
37904;BME280;23738;50.422;18.758;2023-07-31T16:21:17;97958.73;;;24.55;47.04
37904;BME280;23738;50.422;18.758;2023-07-31T16:24:44;97953.94;;;24.57;47.24
37904;BME280;23738;50.422;18.758;2023-07-31T16:28:16;97950.66;;;24.56;47.34
37904;BME280;23738;50.422;18.758;2023-07-31T16:31:47;97942.50;;;24.47;47.26
37904;BME280;23738;50.422;18.758;2023-07-31T16:35:19;97944.88;;;24.36;47.43
37904;BME280;23738;50.422;18.758;2023-07-31T16:38:27;97942.39;;;24.24;47.27
37904;BME280;23738;50.422;18.758;2023-07-31T16:41:17;97944.86;;;24.18;47.34
37904;BME280;23738;50.422;18.758;2023-07-31T16:44:08;97945.81;;;24.11;47.22
37904;BME280;23738;50.422;18.758;2023-07-31T16:47:34;97943.04;;;24.01;47.49
37904;BME280;23738;50.422;18.758;2023-07-31T16:51:04;97941.66;;;23.92;47.54
37904;BME280;23738;50.422;18.758;2023-07-31T16:54:39;97944.47;;;23.86;47.90
37904;BME280;23738;50.422;18.758;2023-07-31T16:58:08;97944.94;;;23.78;47.77
37904;BME280;23738;50.422;18.758;2023-07-31T17:01:34;97944.13;;;23.70;47.97
37904;BME280;23738;50.422;18.758;2023-07-31T17:05:05;97944.00;;;23.63;48.19
37904;BME280;23738;50.422;18.758;2023-07-31T17:08:34;97952.17;;;23.58;48.42
37904;BME280;23738;50.422;18.758;2023-07-31T17:12:06;97950.05;;;23.48;48.38
37904;BME280;23738;50.422;18.758;2023-07-31T17:15:51;97946.13;;;23.41;48.74
37904;BME280;23738;50.422;18.758;2023-07-31T17:19:23;97944.45;;;23.33;48.93
37904;BME280;23738;50.422;18.758;2023-07-31T17:22:53;97953.98;;;23.26;49.01
37904;BME280;23738;50.422;18.758;2023-07-31T17:26:22;97946.13;;;23.20;49.29